Time;durP1;ratioP1;P1;durP2;ratioP2;P2;SDS_P1;SDS_P2;PMS_P1;PMS_P2;Temp;Humidity;BMP_temperature;BMP_pressure;BME280_temperature;BME280_humidity;BME280_pressure;Samples;Min_cycle;Max_cycle;Signal;HPM_P1;HPM_P2
2022/04/06 00:01:20;;;;;;;1.40;1.17;;;12.70;76.90;;;;;;5056554;28;20507;-55
2022/04/06 00:03:47;;;;;;;2.00;1.20;;;12.70;76.70;;;;;;5074633;28;20029;-54
2022/04/06 00:06:13;;;;;;;2.30;1.40;;;12.70;76.50;;;;;;5056277;28;20104;-54
2022/04/06 00:08:39;;;;;;;1.70;1.10;;;12.70;76.50;;;;;;5074124;28;20055;-56
2022/04/06 00:11:06;;;;;;;1.88;1.40;;;12.60;76.50;;;;;;5074214;28;20024;-55
2022/04/06 00:13:31;;;;;;;1.90;1.30;;;12.60;76.60;;;;;;5074605;28;20091;-54
2022/04/06 00:15:58;;;;;;;1.70;1.33;;;12.60;76.50;;;;;;5056658;28;20028;-63
2022/04/06 00:18:24;;;;;;;2.30;1.25;;;12.70;76.50;;;;;;5056632;28;20024;-56
2022/04/06 00:20:50;;;;;;;1.73;1.13;;;12.60;76.40;;;;;;5056298;28;20053;-54
2022/04/06 00:23:16;;;;;;;1.38;1.10;;;12.60;76.50;;;;;;5073430;28;20035;-52
2022/04/06 00:25:41;;;;;;;2.78;1.20;;;12.70;76.30;;;;;;5055709;28;20126;-54
2022/04/06 00:28:07;;;;;;;1.95;1.00;;;12.70;76.20;;;;;;5073610;28;20031;-56
2022/04/06 00:30:34;;;;;;;1.27;1.02;;;12.60;76.00;;;;;;5073731;28;20108;-54
2022/04/06 00:32:59;;;;;;;1.85;1.30;;;12.70;76.00;;;;;;5055943;28;20384;-62
2022/04/06 00:35:28;;;;;;;1.88;1.10;;;12.70;76.00;;;;;;5073964;28;20103;-50
2022/04/06 00:37:54;;;;;;;1.48;1.08;;;12.60;76.00;;;;;;5074321;28;20121;-49
2022/04/06 00:40:22;;;;;;;4.03;1.25;;;12.60;76.00;;;;;;5073243;28;20350;-50
2022/04/06 00:42:48;;;;;;;1.80;1.10;;;12.60;75.90;;;;;;5074139;28;20021;-51
2022/04/06 00:45:15;;;;;;;1.30;1.00;;;12.60;75.80;;;;;;5073394;28;20035;-48
2022/04/06 00:47:41;;;;;;;1.63;1.25;;;12.60;75.80;;;;;;5056187;28;20028;-49
2022/04/06 00:50:07;;;;;;;1.52;1.00;;;12.60;75.60;;;;;;5055114;28;20434;-51
2022/04/06 00:52:33;;;;;;;1.83;1.20;;;12.60;75.60;;;;;;5055317;28;20119;-51
2022/04/06 00:55:01;;;;;;;1.92;1.25;;;12.60;75.40;;;;;;5055122;28;20021;-62
2022/04/06 00:57:27;;;;;;;2.25;1.20;;;12.60;75.30;;;;;;5055615;28;20036;-50
2022/04/06 00:59:54;;;;;;;1.48;1.20;;;12.60;75.10;;;;;;5055527;28;20060;-50
2022/04/06 01:02:20;;;;;;;4.05;1.42;;;12.60;74.90;;;;;;5072968;28;20027;-51
2022/04/06 01:04:46;;;;;;;2.30;1.23;;;12.60;74.80;;;;;;5055569;28;20032;-51
2022/04/06 01:07:12;;;;;;;2.55;1.40;;;12.70;74.90;;;;;;5054638;28;20036;-53
2022/04/06 01:09:38;;;;;;;1.75;1.33;;;12.60;74.80;;;;;;5073414;28;20082;-50
2022/04/06 01:12:04;;;;;;;2.55;1.50;;;12.70;74.60;;;;;;5072609;28;20104;-63
2022/04/06 01:14:30;;;;;;;1.60;1.30;;;12.70;74.40;;;;;;5054596;28;20028;-54
2022/04/06 01:17:06;;;;;;;1.30;1.10;;;12.70;74.20;;;;;;5055436;28;20043;-50
2022/04/06 01:19:51;;;;;;;3.20;1.23;;;12.80;74.00;;;;;;5073414;28;20017;-53
2022/04/06 01:22:20;;;;;;;1.88;1.27;;;12.80;73.60;;;;;;5072219;28;20028;-50
2022/04/06 01:24:47;;;;;;;1.75;1.30;;;12.80;73.60;;;;;;5072927;28;20031;-55
2022/04/06 01:27:14;;;;;;;2.47;1.27;;;12.80;73.50;;;;;;5072298;28;20044;-51
2022/04/06 01:29:41;;;;;;;2.55;1.05;;;12.90;73.30;;;;;;5054873;28;20025;-54
2022/04/06 01:32:16;;;;;;;2.05;1.30;;;12.90;73.30;;;;;;5054508;28;20119;-62
2022/04/06 01:34:43;;;;;;;1.67;1.00;;;12.90;73.20;;;;;;5072456;28;20024;-53
2022/04/06 01:37:11;;;;;;;1.45;1.20;;;12.90;73.10;;;;;;5071475;28;20477;-53
2022/04/06 01:39:39;;;;;;;1.50;1.20;;;13.00;73.00;;;;;;5072895;28;20051;-56
2022/04/06 01:42:07;;;;;;;2.67;1.42;;;13.00;72.80;;;;;;5072426;28;20059;-62
2022/04/06 01:44:33;;;;;;;2.03;1.30;;;13.00;72.90;;;;;;5054503;28;20070;-49
2022/04/06 01:47:00;;;;;;;2.65;1.45;;;13.10;72.60;;;;;;5071630;28;20037;-48
2022/04/06 01:52:13;;;;;;;2.15;1.20;;;13.20;72.10;;;;;;5072025;28;20031;-51
2022/04/06 01:54:54;;;;;;;3.50;1.50;;;13.20;71.80;;;;;;5072550;28;20032;-51
2022/04/06 01:57:21;;;;;;;2.97;1.33;;;13.20;71.50;;;;;;5071881;28;20393;-50
2022/04/06 01:59:47;;;;;;;2.03;1.27;;;13.20;71.40;;;;;;5054123;28;20053;-49
2022/04/06 02:02:17;;;;;;;2.78;1.58;;;13.30;71.20;;;;;;5053762;28;20035;-54
2022/04/06 02:04:44;;;;;;;1.92;1.40;;;13.30;71.30;;;;;;5072349;28;20028;-53
2022/04/06 02:07:29;;;;;;;2.00;1.23;;;13.40;71.00;;;;;;5053912;28;20031;-49
2022/04/06 02:09:58;;;;;;;1.58;1.15;;;13.40;70.90;;;;;;5072404;28;20060;-48
2022/04/06 02:12:24;;;;;;;2.60;1.38;;;13.40;70.70;;;;;;5071295;28;20032;-57
2022/04/06 02:14:50;;;;;;;2.40;1.48;;;13.30;70.40;;;;;;5054409;28;20038;-50
2022/04/06 02:17:16;;;;;;;1.30;1.20;;;13.40;70.40;;;;;;5071823;28;20056;-49
2022/04/06 02:20:01;;;;;;;2.35;1.40;;;13.40;70.40;;;;;;5072033;28;20028;-56
2022/04/06 02:22:26;;;;;;;1.77;1.38;;;13.40;70.10;;;;;;5071561;28;20158;-50
2022/04/06 02:24:52;;;;;;;2.85;1.38;;;13.40;70.00;;;;;;5071508;28;20359;-53
2022/04/06 02:27:18;;;;;;;1.55;1.30;;;13.50;70.10;;;;;;5071292;28;20028;-49
2022/04/06 02:29:44;;;;;;;2.33;1.58;;;13.40;70.00;;;;;;5072466;28;20029;-52
2022/04/06 02:32:10;;;;;;;2.70;1.40;;;13.40;70.10;;;;;;5071450;28;20031;-61
2022/04/06 02:34:36;;;;;;;2.45;1.40;;;13.50;70.20;;;;;;5072096;28;20029;-51
2022/04/06 02:37:03;;;;;;;1.83;1.33;;;13.50;70.00;;;;;;5054093;28;20119;-54
2022/04/06 02:39:29;;;;;;;2.13;1.10;;;13.40;70.20;;;;;;5071085;28;20060;-50
2022/04/06 02:41:54;;;;;;;1.00;0.90;;;13.40;70.30;;;;;;5071662;28;20491;-52
2022/04/06 02:44:21;;;;;;;2.67;1.10;;;13.40;70.40;;;;;;5036150;28;20090;-50
2022/04/06 02:46:48;;;;;;;2.65;1.33;;;13.30;70.40;;;;;;5071986;28;20028;-54
2022/04/06 02:49:14;;;;;;;1.30;0.95;;;13.30;70.50;;;;;;5053317;28;20032;-53
2022/04/06 02:51:40;;;;;;;2.20;1.20;;;13.30;70.60;;;;;;5071690;28;20028;-58
2022/04/06 02:54:06;;;;;;;2.35;0.82;;;13.30;70.60;;;;;;5071447;28;20029;-51
2022/04/06 02:56:31;;;;;;;1.23;1.00;;;13.30;70.80;;;;;;5071173;28;20096;-49
2022/04/06 02:58:57;;;;;;;1.40;0.93;;;13.20;70.80;;;;;;5071498;28;20095;-54
2022/04/06 03:01:23;;;;;;;2.17;1.17;;;13.20;70.90;;;;;;5070927;28;20056;-56
2022/04/06 03:03:49;;;;;;;1.92;1.00;;;13.20;70.90;;;;;;5054293;28;20097;-52
2022/04/06 03:06:16;;;;;;;1.55;1.00;;;13.20;71.00;;;;;;5070876;28;20521;-56
2022/04/06 03:08:42;;;;;;;2.75;1.33;;;13.20;71.00;;;;;;5071545;28;20154;-50
2022/04/06 03:11:08;;;;;;;1.75;1.00;;;13.20;70.90;;;;;;5071341;28;20028;-51
2022/04/06 03:13:34;;;;;;;0.95;0.80;;;13.20;70.90;;;;;;5070276;28;20024;-51
2022/04/06 03:16:00;;;;;;;2.30;1.20;;;13.20;71.00;;;;;;5053754;28;20032;-53
2022/04/06 03:18:25;;;;;;;1.20;1.08;;;13.20;71.00;;;;;;5070818;28;20024;-52
2022/04/06 03:20:51;;;;;;;1.13;0.95;;;13.20;71.00;;;;;;5071442;28;20098;-56
2022/04/06 03:23:17;;;;;;;2.67;1.25;;;13.10;71.10;;;;;;5071018;28;20035;-53
2022/04/06 03:25:43;;;;;;;1.23;1.13;;;13.20;71.00;;;;;;5071380;28;20119;-53
2022/04/06 03:28:09;;;;;;;3.33;1.45;;;13.20;70.90;;;;;;5071470;28;20028;-50
2022/04/06 03:30:35;;;;;;;2.42;1.42;;;13.20;70.70;;;;;;5070542;28;20025;-53
2022/04/06 03:33:01;;;;;;;2.42;1.42;;;13.20;70.60;;;;;;5053163;28;20028;-54
2022/04/06 03:35:27;;;;;;;1.50;1.20;;;13.20;70.50;;;;;;5070238;28;20432;-52
2022/04/06 03:37:53;;;;;;;1.85;1.40;;;13.20;70.50;;;;;;5074858;28;20087;-53
2022/04/06 03:40:19;;;;;;;2.45;1.38;;;13.20;70.50;;;;;;5074158;28;20469;-52
2022/04/06 03:42:45;;;;;;;2.10;1.45;;;13.20;70.40;;;;;;5075124;28;20052;-53
2022/04/06 03:45:11;;;;;;;1.88;1.40;;;13.30;70.30;;;;;;5074806;28;20039;-54
2022/04/06 03:47:40;;;;;;;2.38;1.88;;;13.20;70.30;;;;;;5073993;28;20033;-54
2022/04/06 03:50:06;;;;;;;3.00;2.00;;;13.20;70.40;;;;;;5074628;28;20537;-56
2022/04/06 03:52:32;;;;;;;2.15;1.80;;;13.20;70.50;;;;;;5073864;28;20067;-55
2022/04/06 03:54:58;;;;;;;2.78;1.70;;;13.20;70.50;;;;;;5056121;28;20385;-50
2022/04/06 03:57:25;;;;;;;2.10;1.60;;;13.10;70.60;;;;;;5073630;28;20201;-49
2022/04/06 03:59:51;;;;;;;1.80;1.50;;;13.10;70.70;;;;;;5056319;28;20206;-51
2022/04/06 04:02:17;;;;;;;2.10;1.80;;;13.10;70.90;;;;;;5073868;28;20064;-62
2022/04/06 04:04:43;;;;;;;3.78;1.73;;;13.00;71.00;;;;;;5055942;28;20033;-52
2022/04/06 04:07:09;;;;;;;2.38;1.45;;;13.10;71.10;;;;;;5056332;28;20031;-51
2022/04/06 04:09:36;;;;;;;1.73;1.30;;;13.10;71.20;;;;;;5073826;28;20482;-53
2022/04/06 04:12:03;;;;;;;3.45;1.50;;;13.10;71.30;;;;;;5074541;28;20025;-50
2022/04/06 04:14:34;;;;;;;2.30;1.52;;;13.00;71.40;;;;;;5039128;28;20029;-57
2022/04/06 04:17:00;;;;;;;2.30;1.42;;;13.00;71.30;;;;;;5074285;28;20040;-55
2022/04/06 04:19:26;;;;;;;2.60;1.70;;;13.00;71.40;;;;;;5073664;28;20029;-54
2022/04/06 04:21:51;;;;;;;3.13;1.73;;;12.90;71.70;;;;;;5074425;28;20500;-51
2022/04/06 04:24:18;;;;;;;2.00;1.75;;;12.90;71.60;;;;;;5055816;28;20070;-61
2022/04/06 04:26:43;;;;;;;2.78;1.60;;;12.90;71.60;;;;;;5055918;28;20465;-54
2022/04/06 04:29:09;;;;;;;4.00;2.08;;;12.90;71.50;;;;;;5073844;28;20032;-49
2022/04/06 04:31:35;;;;;;;2.38;1.80;;;12.90;71.40;;;;;;5054725;28;20027;-55
2022/04/06 04:34:01;;;;;;;3.85;2.10;;;12.90;71.40;;;;;;5055680;28;20535;-54
2022/04/06 04:36:28;;;;;;;3.70;1.95;;;12.90;71.50;;;;;;5073084;28;20033;-54
2022/04/06 04:38:54;;;;;;;6.40;2.40;;;12.90;71.50;;;;;;5056276;28;20087;-56
2022/04/06 04:41:20;;;;;;;3.28;2.00;;;13.00;71.50;;;;;;5073036;28;20025;-64
2022/04/06 04:43:46;;;;;;;5.15;3.15;;;12.90;71.40;;;;;;5056043;28;20123;-54
2022/04/06 04:46:12;;;;;;;6.25;3.70;;;13.00;71.40;;;;;;5073911;28;20021;-48
2022/04/06 04:48:38;;;;;;;6.70;3.63;;;13.00;71.30;;;;;;5054801;28;20032;-51
2022/04/06 04:51:04;;;;;;;7.38;3.30;;;13.00;71.20;;;;;;5073562;28;20029;-54
2022/04/06 04:53:33;;;;;;;2.80;2.13;;;13.00;71.00;;;;;;5072955;28;20032;-52
2022/04/06 04:55:59;;;;;;;10.82;6.00;;;13.00;71.00;;;;;;5055280;28;20071;-52
2022/04/06 04:58:27;;;;;;;5.63;3.58;;;13.00;70.90;;;;;;5072897;28;20036;-53
2022/04/06 05:00:54;;;;;;;27.13;13.98;;;13.00;70.90;;;;;;5051951;28;20091;-56
2022/04/06 05:03:20;;;;;;;7.10;4.50;;;13.00;70.80;;;;;;5053120;28;20029;-63
2022/04/06 05:05:49;;;;;;;8.63;4.55;;;13.00;70.80;;;;;;5052986;28;20447;-53
2022/04/06 05:08:15;;;;;;;5.63;3.25;;;13.00;70.80;;;;;;5051962;28;20061;-55
2022/04/06 05:10:41;;;;;;;13.95;7.85;;;13.10;70.70;;;;;;5052629;28;20060;-49
2022/04/06 05:13:08;;;;;;;18.48;9.32;;;13.10;70.60;;;;;;5052916;28;20478;-51
2022/04/06 05:15:34;;;;;;;12.15;7.13;;;13.10;70.70;;;;;;5052477;28;20086;-54
2022/04/06 05:18:00;;;;;;;11.23;4.13;;;13.10;70.50;;;;;;5053286;28;20024;-54
2022/04/06 05:20:27;;;;;;;5.95;3.80;;;13.10;70.50;;;;;;5052472;28;20029;-52
2022/04/06 05:22:52;;;;;;;6.38;3.58;;;13.20;70.40;;;;;;5051780;28;20025;-54
2022/04/06 05:25:20;;;;;;;44.20;17.95;;;13.20;70.20;;;;;;5052799;28;20437;-50
2022/04/06 05:27:50;;;;;;;15.57;7.70;;;13.30;70.10;;;;;;5051475;28;20028;-55
2022/04/06 05:30:20;;;;;;;14.98;5.95;;;13.30;70.00;;;;;;5051659;28;20204;-57
2022/04/06 05:32:48;;;;;;;7.65;4.20;;;13.40;69.70;;;;;;5052570;28;20039;-53
2022/04/06 05:35:13;;;;;;;11.68;4.93;;;13.50;69.40;;;;;;5051387;28;20029;-52
2022/04/06 05:37:40;;;;;;;39.40;18.20;;;13.70;69.10;;;;;;5052223;28;20086;-52
2022/04/06 05:40:08;;;;;;;26.23;10.48;;;13.80;68.60;;;;;;5051380;28;20052;-54
2022/04/06 05:42:34;;;;;;;6.78;3.78;;;13.90;68.20;;;;;;5050725;28;20378;-55
2022/04/06 05:45:00;;;;;;;17.52;8.65;;;14.00;67.90;;;;;;5052511;28;20408;-54
2022/04/06 05:47:26;;;;;;;18.42;7.35;;;14.10;67.70;;;;;;5050261;28;20390;-54
2022/04/06 05:49:52;;;;;;;13.60;6.80;;;14.30;67.40;;;;;;5052342;28;20025;-56
2022/04/06 05:52:18;;;;;;;13.77;6.10;;;14.50;66.80;;;;;;5052490;28;20025;-54
2022/04/06 05:54:44;;;;;;;9.95;5.20;;;14.60;65.60;;;;;;5051666;28;20025;-51
2022/04/06 05:57:09;;;;;;;12.00;5.45;;;14.80;65.40;;;;;;5052848;28;20060;-53
2022/04/06 05:59:36;;;;;;;14.30;5.90;;;14.90;65.00;;;;;;5049935;28;20045;-56
2022/04/06 06:02:03;;;;;;;14.50;5.97;;;15.00;64.30;;;;;;5051623;28;20024;-59
2022/04/06 06:04:29;;;;;;;7.50;3.58;;;15.20;64.10;;;;;;5051103;28;20056;-56
2022/04/06 06:06:55;;;;;;;5.60;3.00;;;15.40;63.50;;;;;;5052189;28;20064;-56
2022/04/06 06:09:21;;;;;;;31.08;13.02;;;15.50;62.90;;;;;;5052140;28;20112;-57
2022/04/06 06:11:46;;;;;;;20.50;6.32;;;15.60;62.40;;;;;;5049739;28;20086;-52
2022/04/06 06:14:12;;;;;;;20.80;9.30;;;15.90;62.00;;;;;;5051297;28;20035;-56
2022/04/06 06:16:38;;;;;;;39.95;16.23;;;16.10;61.50;;;;;;5051226;28;20094;-55
2022/04/06 06:19:03;;;;;;;11.15;5.13;;;16.10;60.20;;;;;;5051659;28;20478;-50
2022/04/06 06:21:32;;;;;;;14.60;6.07;;;16.10;60.00;;;;;;5050257;28;20446;-55
2022/04/06 06:24:02;;;;;;;8.80;3.83;;;16.20;59.80;;;;;;5051104;28;20028;-56
2022/04/06 06:26:28;;;;;;;6.95;3.00;;;16.20;59.30;;;;;;5051409;28;20031;-52
2022/04/06 06:28:54;;;;;;;11.70;4.72;;;16.40;59.50;;;;;;5051548;28;20029;-56
2022/04/06 06:31:19;;;;;;;10.70;4.57;;;16.40;58.70;;;;;;5051620;28;20025;-55
2022/04/06 06:33:45;;;;;;;13.57;6.93;;;16.30;58.30;;;;;;5049368;28;20025;-56
2022/04/06 06:36:11;;;;;;;11.23;4.22;;;16.30;58.90;;;;;;5051263;28;20116;-53
2022/04/06 06:38:37;;;;;;;12.10;7.80;;;16.30;58.80;;;;;;5050560;28;20251;-54
2022/04/06 06:41:02;;;;;;;8.35;5.40;;;16.20;58.60;;;;;;5050536;28;20476;-54
2022/04/06 06:43:28;;;;;;;2.80;2.08;;;16.10;58.70;;;;;;5050220;28;20104;-56
2022/04/06 06:45:54;;;;;;;3.38;1.95;;;16.00;58.90;;;;;;5049827;28;20032;-56
2022/04/06 06:48:20;;;;;;;5.47;2.00;;;16.00;58.80;;;;;;5033051;28;20025;-56
2022/04/06 06:50:45;;;;;;;7.55;2.13;;;16.10;59.10;;;;;;5053057;28;20143;-56
2022/04/06 06:53:11;;;;;;;2.85;1.65;;;16.10;58.60;;;;;;5052480;28;20029;-57
2022/04/06 06:55:37;;;;;;;2.40;1.60;;;16.10;58.60;;;;;;5048669;28;20041;-52
2022/04/06 06:58:02;;;;;;;4.18;1.80;;;16.20;58.40;;;;;;5049414;28;20029;-54
2022/04/06 07:00:28;;;;;;;3.42;1.92;;;16.30;57.90;;;;;;5064752;28;20106;-59
2022/04/06 07:02:55;;;;;;;5.45;1.92;;;16.40;58.10;;;;;;5071407;28;20029;-55
2022/04/06 07:05:22;;;;;;;6.60;1.35;;;16.60;57.70;;;;;;5052819;28;20042;-56
2022/04/06 07:08:02;;;;;;;2.40;1.52;;;16.80;56.90;;;;;;5052700;28;20032;-56
2022/04/06 07:10:31;;;;;;;2.17;1.20;;;17.00;56.30;;;;;;5069708;28;20035;-56
2022/04/06 07:12:57;;;;;;;3.50;1.48;;;17.20;55.90;;;;;;5075134;28;20062;-57
2022/04/06 07:15:24;;;;;;;7.82;3.80;;;17.40;55.70;;;;;;5075019;28;20113;-51
2022/04/06 07:17:53;;;;;;;2.60;1.42;;;17.60;55.40;;;;;;5073979;28;20024;-54
2022/04/06 07:20:19;;;;;;;7.93;2.50;;;17.90;54.10;;;;;;5074405;28;20021;-52
2022/04/06 07:22:45;;;;;;;3.97;2.30;;;19.20;54.40;;;;;;5074265;28;20300;-57
2022/04/06 07:25:11;;;;;;;20.88;3.15;;;22.70;48.80;;;;;;5074518;28;20036;-56
2022/04/06 07:27:37;;;;;;;11.38;3.45;;;25.60;43.60;;;;;;5073897;28;20497;-53
2022/04/06 07:30:08;;;;;;;2.92;2.47;;;28.20;39.50;;;;;;5074440;28;20025;-58
2022/04/06 07:32:35;;;;;;;9.00;4.70;;;30.90;34.00;;;;;;5073296;28;20138;-54
2022/04/06 07:35:01;;;;;;;7.90;2.13;;;33.00;32.10;;;;;;5056706;28;20028;-56
2022/04/06 07:37:34;;;;;;;2.13;1.52;;;33.90;29.80;;;;;;5074080;28;20115;-65
2022/04/06 07:39:59;;;;;;;2.55;1.60;;;33.70;28.90;;;;;;5075180;28;20027;-56
2022/04/06 07:42:25;;;;;;;3.97;3.55;;;32.70;28.50;;;;;;5056667;28;20025;-55
2022/04/06 07:44:51;;;;;;;5.72;2.40;;;33.70;29.30;;;;;;5074183;28;20021;-57
2022/04/06 07:47:16;;;;;;;2.92;2.05;;;36.00;28.50;;;;;;5075267;28;20074;-55
2022/04/06 07:49:42;;;;;;;5.30;2.85;;;38.10;27.10;;;;;;5056337;28;20040;-53
2022/04/06 07:52:08;;;;;;;2.97;1.90;;;39.70;25.60;;;;;;5056905;28;20377;-54
2022/04/06 07:54:33;;;;;;;24.63;22.48;;;40.30;24.90;;;;;;5056209;28;20024;-53
2022/04/06 07:56:59;;;;;;;5.60;1.85;;;40.80;24.50;;;;;;5074450;28;20036;-56
2022/04/06 07:59:25;;;;;;;8.80;3.17;;;40.90;23.90;;;;;;5073556;28;20055;-53
2022/04/06 08:01:50;;;;;;;2.40;2.03;;;41.10;23.90;;;;;;5073966;28;20142;-60
2022/04/06 08:04:16;;;;;;;6.80;1.70;;;41.80;23.50;;;;;;5056393;28;20405;-52
2022/04/06 08:06:42;;;;;;;4.85;1.45;;;41.10;22.70;;;;;;5073676;28;20024;-56
2022/04/06 08:09:08;;;;;;;2.22;1.30;;;38.90;23.40;;;;;;5074017;28;20169;-58
2022/04/06 08:11:34;;;;;;;2.30;1.63;;;36.70;24.20;;;;;;5073795;28;20029;-54
2022/04/06 08:14:00;;;;;;;3.22;1.30;;;35.90;25.10;;;;;;5039806;28;20484;-61
2022/04/06 08:16:27;;;;;;;3.42;1.00;;;35.60;25.00;;;;;;5074348;28;20401;-58
2022/04/06 08:18:53;;;;;;;2.30;0.95;;;34.30;25.50;;;;;;5073512;28;20024;-57
2022/04/06 08:21:19;;;;;;;3.80;1.10;;;33.20;26.30;;;;;;5055923;28;20115;-58
2022/04/06 08:23:45;;;;;;;3.28;1.60;;;32.90;26.80;;;;;;5054156;28;20466;-54
2022/04/06 08:26:11;;;;;;;6.72;1.20;;;32.80;26.80;;;;;;5073592;28;20028;-54
2022/04/06 08:28:38;;;;;;;3.42;1.45;;;32.70;26.60;;;;;;5073176;28;20047;-55
2022/04/06 08:31:05;;;;;;;2.22;1.38;;;33.50;26.70;;;;;;5073750;28;20044;-55
2022/04/06 08:33:31;;;;;;;2.72;1.30;;;34.50;25.90;;;;;;5055625;28;20025;-64
2022/04/06 08:35:57;;;;;;;2.15;1.13;;;34.60;25.60;;;;;;5052855;28;20058;-57
2022/04/06 08:38:22;;;;;;;1.88;1.02;;;33.50;25.70;;;;;;5073006;28;20037;-54
2022/04/06 08:40:48;;;;;;;2.10;1.02;;;32.30;26.20;;;;;;5072833;28;20050;-57
2022/04/06 08:43:17;;;;;;;3.00;1.02;;;31.00;26.90;;;;;;5073078;28;20094;-59
2022/04/06 08:45:43;;;;;;;12.07;1.33;;;29.40;28.10;;;;;;5055061;28;20029;-57
2022/04/06 08:48:11;;;;;;;6.20;1.23;;;28.60;28.90;;;;;;5073735;28;20033;-57
2022/04/06 08:50:37;;;;;;;4.00;1.10;;;28.00;29.40;;;;;;5073338;28;20040;-55
2022/04/06 08:53:05;;;;;;;2.78;1.10;;;27.50;30.00;;;;;;5074298;28;20121;-55
2022/04/06 08:55:32;;;;;;;5.28;1.65;;;27.10;30.50;;;;;;5055449;28;20024;-63
2022/04/06 08:57:59;;;;;;;2.50;1.15;;;26.50;30.80;;;;;;5055854;28;20509;-55
2022/04/06 09:00:26;;;;;;;3.65;1.40;;;26.10;31.70;;;;;;5055489;28;20048;-56
2022/04/06 09:02:53;;;;;;;3.65;1.60;;;25.60;32.40;;;;;;5054880;28;20169;-59
2022/04/06 09:05:23;;;;;;;8.30;1.60;;;25.00;33.10;;;;;;5073165;28;20149;-60
2022/04/06 09:07:51;;;;;;;2.90;1.52;;;24.40;34.30;;;;;;5072726;28;20056;-57
2022/04/06 09:10:33;;;;;;;6.15;1.60;;;24.10;34.70;;;;;;5073389;28;20082;-55
2022/04/06 09:13:20;;;;;;;6.80;1.40;;;23.70;35.50;;;;;;5073648;28;20021;-55
2022/04/06 09:15:46;;;;;;;5.90;2.15;;;23.40;36.20;;;;;;5054717;28;20033;-54
2022/04/06 09:18:12;;;;;;;8.75;1.98;;;23.30;36.60;;;;;;5055201;28;20438;-58
2022/04/06 09:20:39;;;;;;;4.70;1.48;;;23.20;36.50;;;;;;5054688;28;20462;-54
2022/04/06 09:23:06;;;;;;;13.60;1.92;;;22.80;37.10;;;;;;5072725;28;20071;-60
2022/04/06 09:25:38;;;;;;;4.22;1.33;;;22.70;37.40;;;;;;5055173;28;20028;-56
2022/04/06 09:28:12;;;;;;;4.20;1.60;;;22.60;37.50;;;;;;5073214;28;20098;-53
2022/04/06 09:30:47;;;;;;;5.50;1.38;;;22.50;37.60;;;;;;5072671;28;20033;-57
2022/04/06 09:33:14;;;;;;;2.47;1.42;;;22.30;37.70;;;;;;5072681;28;20064;-54
2022/04/06 09:35:41;;;;;;;2.60;1.40;;;22.10;38.00;;;;;;5072053;28;20070;-58
2022/04/06 09:38:22;;;;;;;7.45;2.53;;;22.20;38.00;;;;;;5073066;28;20063;-57
2022/04/06 09:40:51;;;;;;;5.00;2.15;;;22.20;37.70;;;;;;5072447;28;20461;-55
2022/04/06 09:43:31;;;;;;;3.50;2.08;;;22.00;37.80;;;;;;5054765;28;20078;-52
2022/04/06 09:49:01;;;;;;;2.13;1.05;;;22.00;37.80;;;;;;5072763;28;20032;-58
2022/04/06 09:51:27;;;;;;;3.75;1.10;;;21.80;38.10;;;;;;5072379;28;20040;-54
2022/04/06 09:53:54;;;;;;;4.38;0.93;;;21.70;38.30;;;;;;5054151;28;20025;-53
2022/04/06 09:56:21;;;;;;;3.10;1.17;;;21.60;38.50;;;;;;5054332;28;20453;-55
2022/04/06 09:58:48;;;;;;;1.55;1.00;;;21.50;38.80;;;;;;5053954;28;20029;-56
2022/04/06 10:01:14;;;;;;;1.30;0.70;;;21.30;38.90;;;;;;5072380;28;20072;-56
2022/04/06 10:03:44;;;;;;;4.82;0.80;;;21.10;39.40;;;;;;5053765;28;20060;-53
2022/04/06 10:06:10;;;;;;;4.38;1.17;;;20.80;39.80;;;;;;5072076;28;20020;-56
2022/04/06 10:08:41;;;;;;;4.68;1.42;;;20.70;40.30;;;;;;5054284;28;20028;-55
2022/04/06 10:11:13;;;;;;;3.72;0.80;;;20.60;40.40;;;;;;5072229;28;20028;-58
2022/04/06 10:13:40;;;;;;;2.80;0.98;;;20.70;40.00;;;;;;5071344;28;20059;-56
2022/04/06 10:16:10;;;;;;;2.03;1.30;;;20.70;39.80;;;;;;5072138;28;20096;-58
2022/04/06 10:18:36;;;;;;;1.90;1.05;;;20.90;39.50;;;;;;5071760;28;20021;-56
2022/04/06 10:21:41;;;;;;;2.00;1.15;;;21.00;39.20;;;;;;5071196;28;20119;-55
2022/04/06 10:24:26;;;;;;;4.68;0.80;;;20.80;38.80;;;;;;5071457;28;20036;-54
2022/04/06 10:27:08;;;;;;;2.45;0.68;;;20.60;39.30;;;;;;5071470;28;20139;-56
2022/04/06 10:30:06;;;;;;;2.60;1.30;;;20.60;39.30;;;;;;5071548;28;20039;-55
2022/04/06 10:32:42;;;;;;;4.72;1.15;;;21.00;39.30;;;;;;5071315;28;20029;-53
2022/04/06 10:35:19;;;;;;;1.52;0.68;;;21.20;38.40;;;;;;5053515;28;20059;-54
2022/04/06 10:38:16;;;;;;;2.15;0.70;;;21.00;38.50;;;;;;5052709;28;20032;-54
2022/04/06 10:40:45;;;;;;;1.77;0.95;;;20.80;38.80;;;;;;5069570;28;20044;-65
2022/04/06 10:43:36;;;;;;;3.00;1.00;;;21.00;39.00;;;;;;5071464;28;20020;-57
2022/04/06 10:46:15;;;;;;;1.48;0.75;;;21.20;38.30;;;;;;5054250;28;20025;-53
2022/04/06 10:49:06;;;;;;;0.77;0.70;;;21.50;37.90;;;;;;5056975;28;20024;-56
2022/04/06 10:51:34;;;;;;;3.10;1.00;;;21.90;37.40;;;;;;5075543;28;20165;-56
2022/04/06 10:54:19;;;;;;;3.78;1.10;;;22.20;36.90;;;;;;5057171;28;20266;-56
2022/04/06 10:56:52;;;;;;;2.88;1.02;;;22.50;36.40;;;;;;5056729;28;20086;-55
2022/04/06 10:59:22;;;;;;;1.45;0.80;;;22.60;36.70;;;;;;5075273;28;20485;-57
2022/04/06 11:01:49;;;;;;;6.40;1.10;;;22.50;36.10;;;;;;5074881;28;20036;-56
2022/04/06 11:04:22;;;;;;;1.55;0.82;;;22.50;36.00;;;;;;5075426;28;20040;-56
2022/04/06 11:06:56;;;;;;;4.22;1.00;;;22.50;36.10;;;;;;5056270;28;20111;-58
2022/04/06 11:12:22;;;;;;;2.13;0.90;;;22.30;36.30;;;;;;5074802;28;20043;-55
2022/04/06 11:15:08;;;;;;;2.33;0.95;;;22.10;36.50;;;;;;5056589;28;20434;-56
2022/04/06 11:17:39;;;;;;;2.50;0.93;;;22.00;36.50;;;;;;5060832;28;20043;-57
2022/04/06 11:20:13;;;;;;;1.25;0.75;;;22.00;36.60;;;;;;5056647;28;20394;-56
2022/04/06 11:22:43;;;;;;;1.83;0.68;;;22.00;36.40;;;;;;5056660;28;20024;-54
2022/04/06 11:25:20;;;;;;;0.93;0.68;;;22.20;36.20;;;;;;5074804;28;20029;-62
2022/04/06 11:27:47;;;;;;;2.60;0.90;;;22.10;35.90;;;;;;5074519;28;20086;-57
2022/04/06 11:30:18;;;;;;;1.70;0.70;;;22.00;36.30;;;;;;5074598;28;20069;-58
2022/04/06 11:32:58;;;;;;;1.00;0.80;;;22.10;36.50;;;;;;5074541;28;20461;-57
2022/04/06 11:35:28;;;;;;;2.72;0.80;;;22.20;36.10;;;;;;5056450;28;20090;-57
2022/04/06 11:37:55;;;;;;;1.80;0.60;;;22.30;36.20;;;;;;5074226;28;20040;-57
2022/04/06 11:40:22;;;;;;;1.38;0.90;;;22.50;35.90;;;;;;5074622;28;20033;-55
2022/04/06 11:42:49;;;;;;;3.90;0.80;;;22.30;35.70;;;;;;5055979;28;20353;-55
2022/04/06 11:45:23;;;;;;;3.28;0.90;;;22.20;36.20;;;;;;5056192;28;20032;-57
2022/04/06 11:47:53;;;;;;;;;;;22.10;36.10;;;;;;5074437;28;20062;-57
2022/04/06 11:50:19;;;;;;;1.25;0.77;;;22.10;36.30;;;;;;5074013;28;19905;-56
2022/04/06 11:52:45;;;;;;;1.50;0.77;;;22.10;36.20;;;;;;5073706;28;20414;-67
2022/04/06 11:55:11;;;;;;;2.17;1.50;;;22.20;36.00;;;;;;5074116;28;20330;-55
2022/04/06 11:57:46;;;;;;;3.58;1.20;;;22.20;35.80;;;;;;5055876;28;20029;-56
2022/04/06 12:00:13;;;;;;;10.60;2.17;;;22.10;35.70;;;;;;5073780;28;20053;-57
2022/04/06 12:02:55;;;;;;;2.90;1.45;;;22.20;36.00;;;;;;5055668;28;20029;-56
2022/04/06 12:05:24;;;;;;;1.85;1.08;;;22.10;36.00;;;;;;5074288;28;20126;-60
2022/04/06 12:08:13;;;;;;;1.73;1.10;;;22.20;35.80;;;;;;5073632;28;20354;-61
2022/04/06 12:10:49;;;;;;;1.13;0.93;;;22.20;35.90;;;;;;5073819;28;20033;-58
2022/04/06 12:13:17;;;;;;;4.00;1.30;;;22.10;35.70;;;;;;5056114;28;20105;-58
2022/04/06 12:15:44;;;;;;;1.55;0.90;;;22.20;36.00;;;;;;5073940;28;20044;-57
2022/04/06 12:18:10;;;;;;;1.80;0.98;;;22.10;35.80;;;;;;5073371;28;20055;-58
2022/04/06 12:20:35;;;;;;;2.63;1.58;;;22.10;35.60;;;;;;5055857;28;20036;-56
2022/04/06 12:23:03;;;;;;;2.40;1.63;;;22.20;35.60;;;;;;5073323;28;20358;-56
2022/04/06 12:25:30;;;;;;;4.55;1.20;;;22.30;35.80;;;;;;5073607;28;20103;-58
2022/04/06 12:28:17;;;;;;;2.97;1.15;;;22.40;35.40;;;;;;5055482;28;20354;-56
2022/04/06 12:31:10;;;;;;;1.20;0.90;;;22.40;35.20;;;;;;5074243;28;20032;-58
2022/04/06 12:33:45;;;;;;;2.10;1.40;;;22.40;35.00;;;;;;5052510;28;20033;-59
2022/04/06 12:36:16;;;;;;;2.53;1.20;;;22.40;35.20;;;;;;5073383;28;20033;-57
2022/04/06 12:39:02;;;;;;;2.38;1.30;;;22.30;35.30;;;;;;5073186;28;20032;-57
2022/04/06 12:41:30;;;;;;;2.85;1.33;;;22.20;35.50;;;;;;5073802;28;20032;-55
2022/04/06 12:43:56;;;;;;;4.05;2.55;;;22.10;36.30;;;;;;5055035;28;20021;-56
2022/04/06 12:46:38;;;;;;;5.35;2.35;;;22.10;35.70;;;;;;5073560;28;20028;-56
2022/04/06 12:49:19;;;;;;;4.90;1.58;;;21.90;36.20;;;;;;5055061;28;20033;-55
2022/04/06 12:51:45;;;;;;;6.68;1.70;;;21.70;36.40;;;;;;5055634;28;20047;-57
2022/04/06 12:54:13;;;;;;;4.70;3.08;;;21.60;36.50;;;;;;5073034;28;20028;-55
2022/04/06 12:56:38;;;;;;;4.50;2.10;;;21.60;36.70;;;;;;5073537;28;20089;-56
2022/04/06 12:59:11;;;;;;;7.55;2.72;;;21.70;36.90;;;;;;5054232;28;20024;-62
2022/04/06 13:01:47;;;;;;;4.55;2.10;;;21.80;36.50;;;;;;5055040;28;20027;-59